createdAt,value
2023-04-04T00:00:32.917Z,1.58
2023-04-04T00:02:59.419Z,1.77
2023-04-04T00:05:25.874Z,1.55
2023-04-04T00:07:53.633Z,1.65
2023-04-04T00:10:20.196Z,2.53
2023-04-04T00:12:46.696Z,1.60
2023-04-04T00:15:13.259Z,2.15
2023-04-04T00:17:39.702Z,1.90
2023-04-04T00:20:07.092Z,2.20
2023-04-04T00:22:33.497Z,2.00
2023-04-04T00:25:01.221Z,1.80
2023-04-04T00:27:27.596Z,2.67
2023-04-04T00:29:53.960Z,2.17
2023-04-04T00:32:20.727Z,2.22
2023-04-04T00:34:52.045Z,2.00
2023-04-04T00:37:18.410Z,2.08
2023-04-04T00:39:44.833Z,1.95
2023-04-04T00:42:12.541Z,2.05
2023-04-04T00:44:38.997Z,1.92
2023-04-04T00:47:05.395Z,1.80
2023-04-04T00:49:31.747Z,2.30
2023-04-04T00:51:58.113Z,2.35
2023-04-04T00:54:24.920Z,2.33
2023-04-04T00:56:51.477Z,2.28
2023-04-04T00:59:19.203Z,2.05
2023-04-04T01:01:45.642Z,2.38
2023-04-04T01:04:12.013Z,2.20
2023-04-04T01:06:38.451Z,2.53
2023-04-04T01:09:04.952Z,2.67
2023-04-04T01:11:31.324Z,2.50
2023-04-04T01:13:57.664Z,2.28
2023-04-04T01:16:25.389Z,2.10
2023-04-04T01:18:54.549Z,2.45
2023-04-04T01:21:22.787Z,2.47
2023-04-04T01:23:58.480Z,1.88
2023-04-04T01:26:26.298Z,3.00
2023-04-04T01:28:52.711Z,2.33
2023-04-04T01:31:23.122Z,2.88
2023-04-04T01:33:55.029Z,2.13
2023-04-04T01:36:26.076Z,2.05
2023-04-04T01:38:58.411Z,2.70
2023-04-04T01:41:31.053Z,2.53
2023-04-04T01:43:57.664Z,3.20
2023-04-04T01:46:24.062Z,2.15
2023-04-04T01:48:50.649Z,3.03
2023-04-04T01:51:17.149Z,2.35
2023-04-04T01:53:43.544Z,2.10
2023-04-04T01:56:10.123Z,2.15
2023-04-04T01:58:37.806Z,2.58
2023-04-04T02:01:04.172Z,2.60
2023-04-04T02:03:30.625Z,2.58
2023-04-04T02:05:56.983Z,2.75
2023-04-04T02:08:23.337Z,2.13
2023-04-04T02:10:50.022Z,2.92
2023-04-04T02:13:16.420Z,2.25
2023-04-04T02:15:44.191Z,2.33
2023-04-04T02:18:10.610Z,2.60
2023-04-04T02:20:36.955Z,2.55
2023-04-04T02:23:03.309Z,2.45
2023-04-04T02:25:29.704Z,2.25
2023-04-04T02:27:56.083Z,2.15
2023-04-04T02:30:22.569Z,2.53
2023-04-04T02:32:51.103Z,2.40
2023-04-04T02:35:17.473Z,2.40
2023-04-04T02:37:44.923Z,2.47
2023-04-04T02:40:12.363Z,2.50
2023-04-04T02:42:42.414Z,2.00
2023-04-04T02:45:10.214Z,2.42
2023-04-04T02:47:36.628Z,2.22
2023-04-04T02:50:04.920Z,3.00
2023-04-04T02:52:31.343Z,2.85
2023-04-04T02:54:57.796Z,2.33
2023-04-04T02:57:24.184Z,2.45
2023-04-04T02:59:50.538Z,2.55
2023-04-04T03:02:17.037Z,2.88
2023-04-04T03:04:43.403Z,2.90
2023-04-04T03:07:11.091Z,2.47
2023-04-04T03:09:37.444Z,2.85
2023-04-04T03:12:04.030Z,2.85
2023-04-04T03:14:30.362Z,2.13
2023-04-04T03:16:56.897Z,2.38
2023-04-04T03:19:24.225Z,3.00
2023-04-04T03:21:50.593Z,3.10
2023-04-04T03:24:18.318Z,2.83
2023-04-04T03:26:44.667Z,3.17
2023-04-04T03:29:11.047Z,3.00
2023-04-04T03:31:37.481Z,2.88
2023-04-04T03:34:03.839Z,2.97
2023-04-04T03:36:30.233Z,3.28
2023-04-04T03:38:56.888Z,4.10
2023-04-04T03:41:24.588Z,2.80
2023-04-04T03:43:50.958Z,3.45
2023-04-04T03:46:17.402Z,2.80
2023-04-04T03:48:43.798Z,2.85
2023-04-04T03:51:10.167Z,3.47
2023-04-04T03:53:36.867Z,3.90
2023-04-04T03:56:03.675Z,3.13
2023-04-04T03:58:31.371Z,3.30
2023-04-04T04:00:57.902Z,3.67
2023-04-04T04:03:24.415Z,3.38
2023-04-04T04:05:50.892Z,3.92
2023-04-04T04:08:17.253Z,3.78
2023-04-04T04:10:43.625Z,3.40
2023-04-04T04:13:10.006Z,2.92
2023-04-04T04:15:37.816Z,3.33
2023-04-04T04:18:04.702Z,3.20
2023-04-04T04:20:31.098Z,3.58
2023-04-04T04:22:57.587Z,3.38
2023-04-04T04:25:23.967Z,3.00
2023-04-04T04:27:50.687Z,2.90
2023-04-04T04:30:17.135Z,2.70
2023-04-04T04:32:44.894Z,3.28
2023-04-04T04:35:11.262Z,3.15
2023-04-04T04:37:37.644Z,3.35
2023-04-04T04:40:04.604Z,3.35
2023-04-04T04:42:30.943Z,3.25
2023-04-04T04:44:57.310Z,2.72
2023-04-04T04:47:23.739Z,3.47
2023-04-04T04:49:51.538Z,2.45
2023-04-04T04:52:17.920Z,3.15
2023-04-04T04:54:44.530Z,2.95
2023-04-04T04:57:10.893Z,2.53
2023-04-04T04:59:37.306Z,2.78
2023-04-04T05:02:03.771Z,3.63
2023-04-04T05:04:30.145Z,3.30
2023-04-04T05:06:57.866Z,2.90
2023-04-04T05:09:24.196Z,2.92
2023-04-04T05:11:50.582Z,2.53
2023-04-04T05:14:16.965Z,2.97
2023-04-04T05:16:43.317Z,3.00
2023-04-04T05:19:09.694Z,2.88
2023-04-04T05:21:36.144Z,2.92
2023-04-04T05:24:04.212Z,2.70
2023-04-04T05:26:30.573Z,2.80
2023-04-04T05:28:56.962Z,3.20
2023-04-04T05:31:23.331Z,3.17
2023-04-04T05:33:49.705Z,3.03
2023-04-04T05:36:16.248Z,2.20
2023-04-04T05:38:42.688Z,2.35
2023-04-04T05:41:10.442Z,2.80
2023-04-04T05:43:36.806Z,2.63
2023-04-04T05:46:03.224Z,2.30
2023-04-04T05:48:29.584Z,2.63
2023-04-04T05:50:55.951Z,2.70
2023-04-04T05:53:22.379Z,2.30
2023-04-04T05:55:51.471Z,3.00
2023-04-04T05:58:19.221Z,2.97
2023-04-04T06:00:45.591Z,2.80
2023-04-04T06:03:11.999Z,2.60
2023-04-04T06:05:38.473Z,2.60
2023-04-04T06:08:05.929Z,2.47
2023-04-04T06:10:32.413Z,2.40
2023-04-04T06:12:58.767Z,3.42
2023-04-04T06:15:26.733Z,2.65
2023-04-04T06:17:53.165Z,2.33
2023-04-04T06:20:19.883Z,2.45
2023-04-04T06:22:46.238Z,2.63
2023-04-04T06:25:12.588Z,3.08
2023-04-04T06:27:38.952Z,2.30
2023-04-04T06:30:06.699Z,3.00
2023-04-04T06:32:34.414Z,2.40
2023-04-04T06:35:00.777Z,2.67
2023-04-04T06:37:27.132Z,2.97
2023-04-04T06:39:53.494Z,3.60
2023-04-04T06:42:19.911Z,3.72
2023-04-04T06:44:46.282Z,2.60
2023-04-04T06:47:12.634Z,2.80
2023-04-04T06:49:40.308Z,3.22
2023-04-04T06:52:06.768Z,2.88
2023-04-04T06:54:33.197Z,2.65
2023-04-04T06:56:59.623Z,2.85
2023-04-04T06:59:26.044Z,3.20
2023-04-04T07:01:52.603Z,3.72
2023-04-04T07:04:19.101Z,3.83
2023-04-04T07:06:46.807Z,2.85
2023-04-04T07:09:25.764Z,3.10
2023-04-04T07:11:54.838Z,2.63
2023-04-04T07:14:21.181Z,3.20
2023-04-04T07:16:47.621Z,2.97
2023-04-04T07:19:14.070Z,2.45
2023-04-04T07:21:40.426Z,2.92
2023-04-04T07:24:08.265Z,3.22
2023-04-04T07:26:34.695Z,2.65
2023-04-04T07:29:01.194Z,3.08
2023-04-04T07:31:27.706Z,2.90
2023-04-04T07:33:54.075Z,2.95
2023-04-04T07:36:20.434Z,2.55
2023-04-04T07:38:47.708Z,3.45
2023-04-04T07:41:15.813Z,3.20
2023-04-04T07:43:42.194Z,3.10
2023-04-04T07:46:08.557Z,3.08
2023-04-04T07:48:35.166Z,3.08
2023-04-04T07:51:02.706Z,4.40
2023-04-04T07:53:29.092Z,6.30
2023-04-04T07:55:55.473Z,7.57
2023-04-04T07:58:23.291Z,5.68
2023-04-04T08:00:49.748Z,6.53
2023-04-04T08:03:16.209Z,5.68
2023-04-04T08:05:42.686Z,2.67
2023-04-04T08:08:09.161Z,3.58
2023-04-04T08:10:35.530Z,4.93
2023-04-04T08:13:01.916Z,3.60
2023-04-04T08:15:29.611Z,3.67
2023-04-04T08:17:56.282Z,4.05
2023-04-04T08:20:22.875Z,3.47
2023-04-04T08:22:49.229Z,3.40
2023-04-04T08:25:15.629Z,3.20
2023-04-04T08:27:41.977Z,1.80
2023-04-04T08:30:09.485Z,2.03
2023-04-04T08:32:37.286Z,1.90
2023-04-04T08:35:04.330Z,1.75
2023-04-04T08:37:30.678Z,2.03
2023-04-04T08:39:57.073Z,2.28
2023-04-04T08:42:27.758Z,2.67
2023-04-04T08:44:55.028Z,2.67
2023-04-04T08:47:24.249Z,3.35
2023-04-04T08:49:53.530Z,2.25
2023-04-04T08:52:22.540Z,2.22
2023-04-04T08:54:50.933Z,1.77
2023-04-04T08:57:17.432Z,1.88
2023-04-04T08:59:43.897Z,1.63
2023-04-04T09:02:17.407Z,2.13
2023-04-04T09:04:51.343Z,1.50
2023-04-04T09:07:27.737Z,1.58
2023-04-04T09:09:54.424Z,2.13
2023-04-04T09:12:22.350Z,1.30
2023-04-04T09:14:51.035Z,1.92
2023-04-04T09:17:17.398Z,1.58
2023-04-04T09:19:43.813Z,1.38
2023-04-04T09:22:10.323Z,1.63
2023-04-04T09:24:40.123Z,2.20
2023-04-04T09:27:07.690Z,1.30
2023-04-04T09:29:34.077Z,1.63
2023-04-04T09:32:00.509Z,1.60
2023-04-04T09:34:28.745Z,1.27
2023-04-04T09:36:55.222Z,1.17
2023-04-04T09:39:23.284Z,1.55
2023-04-04T09:41:51.356Z,1.20
2023-04-04T09:44:18.143Z,0.88
2023-04-04T09:46:44.797Z,1.17
2023-04-04T09:49:13.319Z,1.42
2023-04-04T09:51:40.440Z,1.23
2023-04-04T09:54:18.705Z,1.42
2023-04-04T09:56:51.398Z,2.08
2023-04-04T09:59:17.982Z,1.20
2023-04-04T10:01:45.198Z,1.50
2023-04-04T10:04:11.705Z,1.33
2023-04-04T10:06:38.168Z,1.67
2023-04-04T10:09:04.541Z,1.15
2023-04-04T10:11:32.547Z,1.38
2023-04-04T10:14:00.840Z,1.58
2023-04-04T10:16:31.189Z,1.73
2023-04-04T10:18:59.901Z,1.80
2023-04-04T10:21:27.478Z,1.33
2023-04-04T10:23:54.303Z,1.17
2023-04-04T10:26:20.732Z,1.85
2023-04-04T10:28:47.091Z,1.13
2023-04-04T10:31:22.115Z,1.23
2023-04-04T10:33:55.837Z,1.60
2023-04-04T10:36:24.852Z,1.17
2023-04-04T10:39:01.176Z,1.60
2023-04-04T10:41:31.675Z,1.10
2023-04-04T10:44:00.925Z,1.38
2023-04-04T10:46:32.156Z,1.20
2023-04-04T10:49:01.264Z,1.90
2023-04-04T10:51:29.659Z,1.20
2023-04-04T10:53:56.272Z,1.33
2023-04-04T10:56:23.041Z,1.45
2023-04-04T10:58:49.713Z,1.40
2023-04-04T11:01:16.208Z,1.70
2023-04-04T11:04:20.080Z,1.58
2023-04-04T11:09:53.250Z,1.10
2023-04-04T11:12:28.193Z,1.05
2023-04-04T11:14:55.755Z,1.27
2023-04-04T11:17:41.369Z,1.17
2023-04-04T11:20:09.785Z,1.33
2023-04-04T11:22:36.193Z,1.52
2023-04-04T11:25:31.497Z,1.17
2023-04-04T11:27:58.464Z,1.50
2023-04-04T11:30:25.187Z,1.20
2023-04-04T11:33:00.247Z,1.15
2023-04-04T11:35:34.234Z,1.25
2023-04-04T11:38:01.434Z,1.20
2023-04-04T11:40:35.687Z,1.25
2023-04-04T11:43:08.122Z,1.13
2023-04-04T11:45:35.178Z,1.83
2023-04-04T11:48:03.877Z,1.55
2023-04-04T11:50:36.265Z,1.10
2023-04-04T11:53:05.720Z,1.15
2023-04-04T11:55:32.150Z,1.25
2023-04-04T11:58:05.719Z,1.15
2023-04-04T12:00:33.398Z,1.30
2023-04-04T12:02:59.854Z,1.38
2023-04-04T12:05:27.095Z,1.20
2023-04-04T12:07:54.922Z,1.35
2023-04-04T12:10:22.033Z,1.10
2023-04-04T12:12:48.406Z,1.45
2023-04-04T12:15:17.702Z,1.20
2023-04-04T12:17:45.580Z,1.70
2023-04-04T12:20:15.576Z,1.40
2023-04-04T12:22:41.930Z,1.38
2023-04-04T12:25:10.387Z,1.67
2023-04-04T12:27:37.038Z,1.20
2023-04-04T12:30:05.482Z,1.60
2023-04-04T12:32:32.141Z,1.60
2023-04-04T12:35:01.196Z,1.98
2023-04-04T12:37:28.500Z,1.90
2023-04-04T12:39:55.948Z,2.00
2023-04-04T12:42:25.249Z,1.25
2023-04-04T12:44:52.869Z,1.50
2023-04-04T12:47:19.443Z,1.60
2023-04-04T12:49:46.897Z,1.40
2023-04-04T12:52:18.428Z,1.58
2023-04-04T12:54:48.682Z,1.63
2023-04-04T12:57:18.662Z,1.88
2023-04-04T12:59:46.885Z,1.67
2023-04-04T13:02:16.382Z,1.20
2023-04-04T13:04:45.697Z,1.50
2023-04-04T13:07:22.416Z,1.42
2023-04-04T13:09:53.124Z,1.50
2023-04-04T13:12:19.502Z,1.67
2023-04-04T13:15:04.059Z,1.30
2023-04-04T13:17:42.986Z,1.30
2023-04-04T13:20:10.167Z,1.30
2023-04-04T13:22:37.812Z,1.33
2023-04-04T13:25:04.941Z,1.48
2023-04-04T13:27:31.361Z,1.35
2023-04-04T13:29:57.800Z,1.30
2023-04-04T13:32:25.733Z,1.30
2023-04-04T13:34:52.252Z,1.05
2023-04-04T13:37:18.628Z,1.40
2023-04-04T13:39:45.008Z,1.33
2023-04-04T13:42:11.493Z,1.70
2023-04-04T13:44:37.866Z,1.30
2023-04-04T13:47:04.398Z,1.77
2023-04-04T13:49:32.141Z,1.60
2023-04-04T13:51:58.543Z,1.52
2023-04-04T13:54:25.022Z,1.55
2023-04-04T13:56:51.766Z,1.67
2023-04-04T13:59:18.694Z,1.20
2023-04-04T14:01:45.129Z,1.58
2023-04-04T14:04:22.939Z,2.92
2023-04-04T14:06:51.762Z,1.70
2023-04-04T14:09:18.840Z,1.70
2023-04-04T14:11:45.353Z,1.73
2023-04-04T14:14:11.772Z,1.63
2023-04-04T14:16:38.300Z,1.77
2023-04-04T14:19:04.741Z,2.05
2023-04-04T14:21:31.144Z,2.10
2023-04-04T14:23:58.901Z,2.22
2023-04-04T14:26:25.261Z,2.03
2023-04-04T14:28:51.697Z,1.30
2023-04-04T14:31:18.152Z,1.30
2023-04-04T14:33:44.575Z,1.90
2023-04-04T14:36:10.918Z,1.77
2023-04-04T14:38:37.326Z,1.35
2023-04-04T14:41:05.055Z,1.67
2023-04-04T14:43:31.421Z,1.50
2023-04-04T14:45:57.806Z,1.60
2023-04-04T14:48:24.228Z,1.50
2023-04-04T14:50:52.073Z,1.48
2023-04-04T14:53:18.494Z,1.95
2023-04-04T14:55:44.860Z,1.50
2023-04-04T14:58:12.599Z,1.52
2023-04-04T15:00:38.987Z,1.38
2023-04-04T15:03:06.976Z,1.60
2023-04-04T15:05:33.698Z,1.67
2023-04-04T15:08:00.120Z,1.23
2023-04-04T15:10:26.535Z,1.55
2023-04-04T15:12:52.897Z,1.73
2023-04-04T15:16:34.573Z,1.77
2023-04-04T15:18:07.967Z,1.45
2023-04-04T15:20:34.396Z,1.38
2023-04-04T15:23:00.781Z,1.33
2023-04-04T15:25:27.162Z,1.52
2023-04-04T15:27:53.554Z,1.80
2023-04-04T15:30:21.547Z,1.58
2023-04-04T15:32:47.978Z,1.40
2023-04-04T15:35:18.678Z,1.58
2023-04-04T15:37:45.190Z,1.83
2023-04-04T15:40:11.932Z,1.30
2023-04-04T15:42:38.754Z,2.03
2023-04-04T15:45:06.821Z,1.55
2023-04-04T15:47:34.775Z,1.83
2023-04-04T15:50:01.183Z,1.38
2023-04-04T15:52:27.543Z,1.55
2023-04-04T15:54:53.922Z,1.20
2023-04-04T15:57:20.624Z,1.55
2023-04-04T15:59:47.353Z,1.50
2023-04-04T16:02:14.325Z,1.42
2023-04-04T16:04:42.154Z,1.75
2023-04-04T16:07:08.518Z,1.52
2023-04-04T16:09:34.862Z,1.42
2023-04-04T16:12:01.429Z,1.38
2023-04-04T16:14:28.574Z,1.65
2023-04-04T16:16:54.937Z,1.33
2023-04-04T16:19:21.415Z,1.67
2023-04-04T16:21:49.126Z,1.42
2023-04-04T16:24:15.515Z,1.38
2023-04-04T16:26:41.898Z,1.63
2023-04-04T16:29:08.263Z,1.42
2023-04-04T16:31:34.697Z,1.50
2023-04-04T16:34:01.141Z,1.88
2023-04-04T16:36:27.532Z,1.40
2023-04-04T16:38:55.277Z,1.45
2023-04-04T16:41:21.637Z,1.75
2023-04-04T16:43:47.988Z,1.63
2023-04-04T16:46:14.387Z,1.60
2023-04-04T16:48:41.043Z,1.40
2023-04-04T16:51:07.515Z,1.63
2023-04-04T16:53:33.893Z,2.13
2023-04-04T16:56:01.618Z,1.02
2023-04-04T16:58:28.038Z,1.50
2023-04-04T17:00:54.545Z,1.40
2023-04-04T17:03:21.028Z,1.55
2023-04-04T17:05:47.431Z,1.60
2023-04-04T17:08:13.787Z,1.10
2023-04-04T17:10:40.602Z,1.63
2023-04-04T17:13:08.653Z,1.70
2023-04-04T17:15:35.036Z,1.80
2023-04-04T17:18:01.515Z,1.73
2023-04-04T17:20:30.186Z,1.40
2023-04-04T17:22:57.349Z,1.40
2023-04-04T17:25:24.120Z,1.50
2023-04-04T17:27:50.495Z,1.77
2023-04-04T17:30:19.141Z,1.60
2023-04-04T17:32:45.578Z,1.83
2023-04-04T17:35:11.985Z,1.35
2023-04-04T17:37:38.344Z,1.30
2023-04-04T17:40:05.732Z,2.58
2023-04-04T17:42:32.121Z,1.25
2023-04-04T17:44:58.534Z,2.05
2023-04-04T17:47:26.413Z,1.52
2023-04-04T17:49:53.001Z,2.28
2023-04-04T17:52:19.530Z,1.50
2023-04-04T17:54:45.977Z,1.50
2023-04-04T17:57:12.308Z,2.22
2023-04-04T17:59:38.728Z,2.00
2023-04-04T18:02:05.602Z,1.73
2023-04-04T18:04:33.320Z,2.03
2023-04-04T18:06:59.979Z,3.63
2023-04-04T18:09:26.517Z,3.22
2023-04-04T18:11:53.674Z,3.00
2023-04-04T18:14:20.154Z,1.88
2023-04-04T18:16:46.960Z,2.10
2023-04-04T18:19:13.479Z,2.05
2023-04-04T18:21:41.164Z,1.95
2023-04-04T18:24:08.076Z,2.38
2023-04-04T18:26:34.470Z,2.53
2023-04-04T18:29:00.818Z,2.25
2023-04-04T18:31:27.276Z,1.90
2023-04-04T18:33:53.654Z,1.92
2023-04-04T18:36:20.028Z,1.90
2023-04-04T18:38:47.791Z,2.38
2023-04-04T18:41:14.618Z,1.55
2023-04-04T18:43:41.022Z,3.25
2023-04-04T18:46:07.365Z,1.83
2023-04-04T18:48:34.033Z,2.42
2023-04-04T18:51:00.465Z,1.88
2023-04-04T18:53:27.205Z,1.80
2023-04-04T18:55:55.219Z,1.83
2023-04-04T18:58:21.633Z,1.92
2023-04-04T19:00:48.106Z,2.25
2023-04-04T19:03:14.549Z,1.92
2023-04-04T19:05:46.087Z,1.70
2023-04-04T19:08:15.201Z,2.72
2023-04-04T19:10:44.516Z,1.85
2023-04-04T19:13:12.194Z,2.10
2023-04-04T19:15:38.756Z,2.17
2023-04-04T19:18:05.455Z,1.38
2023-04-04T19:20:31.902Z,1.95
2023-04-04T19:22:58.271Z,2.10
2023-04-04T19:25:24.691Z,1.95
2023-04-04T19:27:51.106Z,1.90
2023-04-04T19:30:52.237Z,2.00
2023-04-04T19:33:21.970Z,1.80
2023-04-04T19:35:50.754Z,1.85
2023-04-04T19:38:21.625Z,1.98
2023-04-04T19:40:51.510Z,2.60
2023-04-04T19:43:19.704Z,2.08
2023-04-04T19:45:48.680Z,2.50
2023-04-04T19:48:45.049Z,2.47
2023-04-04T19:51:39.645Z,1.95
2023-04-04T19:54:10.577Z,1.67
2023-04-04T19:56:37.096Z,2.03
2023-04-04T19:59:07.373Z,2.17
2023-04-04T20:01:35.969Z,2.63
2023-04-04T20:04:07.998Z,3.88
2023-04-04T20:06:35.495Z,2.97
2023-04-04T20:09:06.896Z,2.80
2023-04-04T20:11:34.466Z,2.60
2023-04-04T20:14:02.650Z,2.88
2023-04-04T20:16:29.696Z,2.67
2023-04-04T20:18:58.090Z,3.10
2023-04-04T20:21:26.629Z,2.90
2023-04-04T20:23:55.032Z,4.00
2023-04-04T20:26:42.290Z,3.10
2023-04-04T20:29:10.358Z,4.15
2023-04-04T20:31:41.759Z,3.42
2023-04-04T20:34:30.487Z,3.42
2023-04-04T20:36:58.785Z,3.25
2023-04-04T20:39:40.481Z,4.47
2023-04-04T20:42:31.915Z,4.30
2023-04-04T20:45:00.288Z,3.90
2023-04-04T20:47:40.169Z,3.80
2023-04-04T20:50:40.454Z,3.75
2023-04-04T20:53:15.398Z,3.63
2023-04-04T20:55:43.325Z,3.60
2023-04-04T20:58:19.872Z,4.05
2023-04-04T21:00:46.212Z,3.30
2023-04-04T21:03:27.564Z,3.72
2023-04-04T21:05:58.774Z,3.25
2023-04-04T21:08:37.252Z,2.88
2023-04-04T21:11:04.482Z,3.47
2023-04-04T21:13:33.153Z,3.40
2023-04-04T21:16:03.083Z,3.45
2023-04-04T21:18:31.290Z,3.17
2023-04-04T21:21:07.183Z,3.03
2023-04-04T21:23:42.384Z,2.63
2023-04-04T21:26:10.741Z,3.15
2023-04-04T21:28:38.929Z,3.22
2023-04-04T21:31:09.563Z,2.97
2023-04-04T21:33:36.150Z,3.00
2023-04-04T21:36:02.659Z,2.97
2023-04-04T21:38:30.547Z,3.10
2023-04-04T21:40:59.139Z,3.20
2023-04-04T21:43:26.064Z,2.78
2023-04-04T21:45:54.138Z,3.05
2023-04-04T21:48:20.874Z,3.08
2023-04-04T21:50:47.231Z,2.88
2023-04-04T21:53:13.690Z,2.63
2023-04-04T21:55:40.086Z,3.50
2023-04-04T21:58:07.769Z,2.75
2023-04-04T22:00:34.116Z,3.50
2023-04-04T22:03:00.749Z,3.15
2023-04-04T22:05:38.123Z,3.83
2023-04-04T22:08:05.375Z,3.28
2023-04-04T22:10:31.804Z,3.10
2023-04-04T22:12:58.502Z,3.28
2023-04-04T22:15:26.666Z,3.83
2023-04-04T22:17:53.258Z,3.67
2023-04-04T22:20:19.727Z,3.17
2023-04-04T22:22:46.226Z,3.05
2023-04-04T22:25:12.807Z,3.35
2023-04-04T22:27:39.245Z,3.42
2023-04-04T22:30:08.641Z,3.28
2023-04-04T22:32:36.343Z,3.28
2023-04-04T22:35:02.766Z,3.33
2023-04-04T22:37:29.147Z,3.72
2023-04-04T22:39:55.483Z,4.10
2023-04-04T22:42:21.816Z,3.20
2023-04-04T22:44:48.170Z,3.85
2023-04-04T22:47:14.645Z,3.83
2023-04-04T22:49:42.294Z,3.55
2023-04-04T22:52:08.837Z,4.47
2023-04-04T22:54:35.179Z,3.45
2023-04-04T22:57:01.547Z,3.35
2023-04-04T22:59:27.983Z,3.83
2023-04-04T23:01:54.984Z,3.92
2023-04-04T23:04:21.358Z,3.28
2023-04-04T23:06:49.132Z,3.40
2023-04-04T23:09:15.499Z,3.80
2023-04-04T23:11:42.076Z,4.05
2023-04-04T23:14:08.624Z,3.90
2023-04-04T23:16:35.368Z,3.53
2023-04-04T23:19:02.014Z,3.67
2023-04-04T23:21:28.506Z,3.72
2023-04-04T23:23:56.208Z,3.47
2023-04-04T23:26:22.576Z,3.22
2023-04-04T23:28:50.145Z,3.90
2023-04-04T23:31:16.631Z,3.38
2023-04-04T23:33:43.046Z,3.75
2023-04-04T23:36:09.470Z,3.90
2023-04-04T23:38:35.852Z,4.15
2023-04-04T23:41:03.622Z,4.38
2023-04-04T23:43:29.999Z,3.88
2023-04-04T23:45:56.506Z,3.78
2023-04-04T23:48:22.951Z,4.18
2023-04-04T23:50:49.551Z,4.45
2023-04-04T23:53:15.933Z,4.75
2023-04-04T23:55:42.283Z,4.20
2023-04-04T23:58:09.982Z,4.82
